Time;durP1;ratioP1;P1;durP2;ratioP2;P2;SDS_P1;SDS_P2;PMS_P1;PMS_P2;Temp;Humidity;BMP_temperature;BMP_pressure;BME280_temperature;BME280_humidity;BME280_pressure;Samples;Min_cycle;Max_cycle;Signal;HPM_P1;HPM_P2
2022/03/19 00:00:23;;;;;;;56.13;35.80;;;8.40;62.00;;;;;;5066672;28;20044;-62
2022/03/19 00:02:49;;;;;;;64.88;36.72;;;8.40;61.70;;;;;;5066059;28;20024;-63
2022/03/19 00:05:15;;;;;;;66.22;36.78;;;8.40;61.80;;;;;;5066914;28;20031;-63
2022/03/19 00:07:40;;;;;;;55.40;34.67;;;8.40;61.80;;;;;;5065584;28;20101;-64
2022/03/19 00:10:08;;;;;;;55.22;33.50;;;8.40;61.60;;;;;;5061633;28;20071;-62
2022/03/19 00:12:35;;;;;;;54.65;33.15;;;8.40;61.50;;;;;;5065871;28;20041;-63
2022/03/19 00:15:01;;;;;;;56.80;34.08;;;8.40;61.40;;;;;;5066499;28;20033;-63
2022/03/19 00:17:27;;;;;;;59.33;34.58;;;8.40;61.40;;;;;;5047363;28;20052;-63
2022/03/19 00:19:52;;;;;;;58.13;33.10;;;8.40;61.30;;;;;;5066919;28;20033;-65
2022/03/19 00:22:18;;;;;;;55.03;34.08;;;8.40;61.20;;;;;;5066431;28;20080;-65
2022/03/19 00:24:45;;;;;;;61.20;34.95;;;8.40;61.20;;;;;;5049758;28;20036;-64
2022/03/19 00:27:10;;;;;;;57.70;34.92;;;8.30;61.30;;;;;;5064512;28;20029;-64
2022/03/19 00:29:36;;;;;;;55.03;32.70;;;8.30;61.30;;;;;;5066447;28;20689;-65
2022/03/19 00:32:02;;;;;;;55.10;32.80;;;8.30;61.20;;;;;;5065409;28;20499;-65
2022/03/19 00:34:28;;;;;;;55.00;33.22;;;8.30;61.20;;;;;;5065616;28;20096;-64
2022/03/19 00:36:53;;;;;;;54.58;33.50;;;8.30;61.20;;;;;;5064662;28;20652;-65
2022/03/19 00:39:19;;;;;;;57.47;35.92;;;8.30;61.10;;;;;;5066501;28;20040;-64
2022/03/19 00:41:45;;;;;;;52.88;32.85;;;8.20;61.10;;;;;;5047445;28;20101;-64
2022/03/19 00:44:10;;;;;;;51.85;33.35;;;8.20;61.00;;;;;;5063850;28;20072;-63
2022/03/19 00:46:36;;;;;;;58.30;32.58;;;8.20;61.10;;;;;;5064544;28;20033;-63
2022/03/19 00:49:02;;;;;;;54.72;31.50;;;8.20;61.20;;;;;;5065765;28;20028;-63
2022/03/19 00:51:27;;;;;;;51.17;32.13;;;8.20;61.10;;;;;;5064157;28;20056;-63
2022/03/19 00:53:53;;;;;;;53.95;33.22;;;8.20;61.20;;;;;;5065055;28;20067;-63
2022/03/19 00:56:19;;;;;;;57.40;33.90;;;8.10;61.10;;;;;;5064724;28;20029;-65
2022/03/19 00:58:44;;;;;;;55.38;31.83;;;8.10;61.20;;;;;;5065336;28;20036;-64
2022/03/19 01:01:10;;;;;;;58.13;32.60;;;8.10;61.10;;;;;;5039556;28;20032;-63
2022/03/19 01:03:35;;;;;;;53.90;32.58;;;8.10;61.10;;;;;;5065790;28;20036;-65
2022/03/19 01:06:01;;;;;;;60.47;32.90;;;8.10;61.20;;;;;;5064553;28;20029;-65
2022/03/19 01:08:27;;;;;;;57.30;33.38;;;8.00;61.00;;;;;;5065731;28;20050;-65
2022/03/19 01:10:53;;;;;;;54.90;34.50;;;8.00;61.00;;;;;;5064529;28;20547;-65
2022/03/19 01:13:18;;;;;;;53.55;32.70;;;8.00;61.00;;;;;;5066120;28;20088;-64
2022/03/19 01:15:44;;;;;;;51.78;32.22;;;8.00;61.00;;;;;;5064270;28;20562;-65
2022/03/19 01:18:10;;;;;;;59.50;34.38;;;8.00;61.00;;;;;;5062455;28;20028;-64
2022/03/19 01:20:36;;;;;;;54.65;31.88;;;8.00;61.00;;;;;;5064461;28;20059;-65
2022/03/19 01:23:01;;;;;;;58.28;33.10;;;8.00;61.00;;;;;;5065502;28;20021;-64
2022/03/19 01:25:27;;;;;;;51.20;30.83;;;8.00;61.00;;;;;;5060703;28;20025;-65
2022/03/19 01:27:53;;;;;;;58.90;34.53;;;7.90;60.90;;;;;;5046271;28;20025;-64
2022/03/19 01:30:24;;;;;;;55.53;32.45;;;7.90;61.80;;;;;;5065440;28;20017;-64
2022/03/19 01:32:51;;;;;;;48.45;29.77;;;7.90;60.80;;;;;;5063971;28;20021;-63
2022/03/19 01:35:18;;;;;;;48.72;30.23;;;7.90;60.80;;;;;;5065030;28;20021;-63
2022/03/19 01:37:44;;;;;;;50.85;30.52;;;7.90;60.80;;;;;;5063420;28;20119;-63
2022/03/19 01:40:11;;;;;;;49.90;31.23;;;7.90;60.80;;;;;;5047329;28;20029;-63
2022/03/19 01:42:43;;;;;;;50.80;29.90;;;7.80;60.80;;;;;;5063335;28;20029;-65
2022/03/19 01:45:11;;;;;;;49.47;29.90;;;7.80;60.70;;;;;;5061674;28;20044;-63
2022/03/19 01:47:36;;;;;;;49.30;29.98;;;7.80;60.60;;;;;;5063025;28;20057;-63
2022/03/19 01:50:03;;;;;;;49.60;28.55;;;7.80;60.60;;;;;;5063233;28;20025;-63
2022/03/19 01:52:29;;;;;;;49.22;29.38;;;7.80;60.50;;;;;;5065586;28;20079;-65
2022/03/19 01:54:55;;;;;;;47.83;28.92;;;7.80;60.40;;;;;;5064239;28;20037;-63
2022/03/19 01:57:23;;;;;;;52.00;31.35;;;7.80;60.40;;;;;;5060122;28;20076;-65
2022/03/19 01:59:50;;;;;;;52.13;29.13;;;7.80;60.40;;;;;;5064262;28;20031;-63
2022/03/19 02:02:16;;;;;;;51.33;29.38;;;7.80;60.30;;;;;;5063308;28;20055;-65
2022/03/19 02:04:42;;;;;;;48.90;29.52;;;7.80;60.40;;;;;;5064646;28;20021;-63
2022/03/19 02:07:10;;;;;;;50.17;29.88;;;7.80;60.40;;;;;;5061847;28;20055;-63
2022/03/19 02:09:39;;;;;;;47.55;29.45;;;7.80;60.30;;;;;;5064440;28;20043;-64
2022/03/19 02:12:06;;;;;;;49.67;28.23;;;7.80;60.30;;;;;;5045406;28;20035;-63
2022/03/19 02:14:37;;;;;;;49.33;27.83;;;7.70;60.30;;;;;;5065008;28;20025;-64
2022/03/19 02:17:04;;;;;;;46.25;28.60;;;7.70;60.20;;;;;;5063497;28;20060;-63
2022/03/19 02:19:30;;;;;;;47.08;27.98;;;7.70;60.20;;;;;;5064038;28;20390;-63
2022/03/19 02:21:56;;;;;;;46.45;28.30;;;7.70;60.20;;;;;;5063819;28;20025;-64
2022/03/19 02:27:06;;;;;;;47.63;27.50;;;7.70;60.20;;;;;;5063643;28;20078;-63
2022/03/19 02:29:32;;;;;;;49.70;29.15;;;7.70;60.10;;;;;;5064105;28;20104;-64
2022/03/19 02:32:00;;;;;;;48.10;27.95;;;7.60;60.10;;;;;;5063189;28;20067;-65
2022/03/19 02:34:26;;;;;;;50.38;27.98;;;7.60;60.00;;;;;;5063680;28;20429;-63
2022/03/19 02:36:52;;;;;;;47.58;29.05;;;7.60;60.00;;;;;;5063258;28;20072;-64
2022/03/19 02:39:33;;;;;;;49.90;29.63;;;7.60;60.00;;;;;;5064619;28;20029;-64
2022/03/19 02:42:03;;;;;;;42.80;26.88;;;7.50;60.70;;;;;;5042654;28;20025;-64
2022/03/19 02:44:29;;;;;;;49.22;29.08;;;7.50;60.00;;;;;;5064179;28;20124;-63
2022/03/19 02:47:00;;;;;;;49.08;27.45;;;7.50;59.90;;;;;;5049667;28;20033;-64
2022/03/19 02:49:26;;;;;;;48.35;26.50;;;7.50;60.00;;;;;;5064134;28;20033;-63
2022/03/19 02:51:53;;;;;;;49.47;29.30;;;7.50;59.90;;;;;;5033363;28;20042;-65
2022/03/19 02:54:21;;;;;;;47.53;28.40;;;7.50;59.90;;;;;;5040059;28;20053;-65
2022/03/19 02:56:47;;;;;;;49.25;27.20;;;7.40;59.80;;;;;;5036627;28;20503;-65
2022/03/19 02:59:20;;;;;;;51.28;29.40;;;7.40;59.80;;;;;;5055465;28;20021;-64
2022/03/19 03:01:54;;;;;;;48.97;28.05;;;7.40;59.80;;;;;;5061071;28;20089;-64
2022/03/19 03:04:20;;;;;;;48.55;30.13;;;7.40;59.70;;;;;;5048482;28;20040;-65
2022/03/19 03:06:48;;;;;;;45.05;26.52;;;7.40;59.60;;;;;;5044215;28;20120;-64
2022/03/19 03:09:17;;;;;;;45.95;27.27;;;7.40;59.60;;;;;;5044489;28;20107;-64
2022/03/19 03:11:43;;;;;;;44.75;26.63;;;7.40;59.60;;;;;;5026396;28;20045;-64
2022/03/19 03:14:09;;;;;;;41.67;25.55;;;7.40;59.60;;;;;;5043169;28;20069;-64
2022/03/19 03:16:35;;;;;;;43.67;24.48;;;7.40;59.50;;;;;;5043486;28;20017;-64
2022/03/19 03:19:03;;;;;;;43.88;26.48;;;7.40;59.50;;;;;;5044167;28;20037;-63
2022/03/19 03:21:29;;;;;;;46.47;25.90;;;7.40;59.50;;;;;;5044692;28;20021;-63
2022/03/19 03:23:56;;;;;;;45.92;27.15;;;7.40;59.40;;;;;;5047732;28;20047;-64
2022/03/19 03:26:22;;;;;;;45.08;25.80;;;7.40;59.40;;;;;;5044287;28;20018;-64
2022/03/19 03:28:48;;;;;;;43.25;25.30;;;7.40;59.40;;;;;;5041964;28;20030;-64
2022/03/19 03:31:13;;;;;;;45.40;27.75;;;7.40;59.30;;;;;;5038853;28;20036;-64
2022/03/19 03:33:39;;;;;;;43.05;26.33;;;7.30;59.10;;;;;;5042786;28;20041;-65
2022/03/19 03:36:05;;;;;;;47.08;24.85;;;7.30;59.10;;;;;;5039419;28;20045;-64
2022/03/19 03:38:31;;;;;;;42.55;25.13;;;7.30;59.10;;;;;;5043567;28;20028;-65
2022/03/19 03:40:57;;;;;;;43.72;26.08;;;7.30;59.10;;;;;;5044373;28;20038;-64
2022/03/19 03:43:23;;;;;;;44.55;25.70;;;7.30;59.00;;;;;;5043185;28;20048;-64
2022/03/19 03:45:50;;;;;;;43.65;25.05;;;7.30;58.90;;;;;;5026016;28;20084;-65
2022/03/19 03:48:16;;;;;;;46.85;24.85;;;7.30;58.90;;;;;;5043988;28;20021;-65
2022/03/19 03:50:41;;;;;;;42.17;25.13;;;7.30;59.00;;;;;;5048796;28;20029;-64
2022/03/19 03:53:08;;;;;;;42.50;25.23;;;7.20;58.90;;;;;;5055839;28;20045;-64
2022/03/19 03:55:34;;;;;;;41.75;23.70;;;7.30;58.80;;;;;;5043653;28;20025;-64
2022/03/19 03:58:01;;;;;;;41.45;24.13;;;7.20;58.70;;;;;;5046847;28;20037;-63
2022/03/19 04:00:27;;;;;;;38.42;23.13;;;7.20;58.70;;;;;;5042752;28;20028;-64
2022/03/19 04:02:53;;;;;;;39.58;24.20;;;7.20;58.70;;;;;;5045459;28;20024;-64
2022/03/19 04:05:19;;;;;;;40.33;24.20;;;7.20;58.70;;;;;;5043978;28;20029;-64
2022/03/19 04:07:45;;;;;;;39.13;23.23;;;7.20;58.60;;;;;;5041412;28;20446;-64
2022/03/19 04:10:12;;;;;;;39.20;23.10;;;7.20;58.60;;;;;;5045905;28;20029;-64
2022/03/19 04:12:37;;;;;;;43.10;24.15;;;7.10;58.40;;;;;;5046919;28;20033;-64
2022/03/19 04:15:04;;;;;;;40.72;23.38;;;7.10;58.30;;;;;;5046388;28;20044;-64
2022/03/19 04:17:30;;;;;;;41.35;22.50;;;7.10;58.30;;;;;;5029220;28;20496;-64
2022/03/19 04:19:56;;;;;;;42.95;22.77;;;7.20;58.30;;;;;;5027470;28;20026;-63
2022/03/19 04:22:21;;;;;;;35.13;21.30;;;7.20;58.30;;;;;;5029368;28;20549;-64
2022/03/19 04:24:47;;;;;;;38.63;21.52;;;7.10;58.10;;;;;;5034677;28;20061;-64
2022/03/19 04:27:14;;;;;;;41.97;23.63;;;7.10;58.10;;;;;;5027958;28;20018;-64
2022/03/19 04:29:40;;;;;;;42.28;24.25;;;7.10;57.80;;;;;;5045596;28;20100;-64
2022/03/19 04:32:07;;;;;;;44.67;23.35;;;7.10;57.90;;;;;;5046948;28;20025;-64
2022/03/19 04:34:33;;;;;;;41.88;22.60;;;7.10;57.60;;;;;;5045423;28;20033;-63
2022/03/19 04:36:59;;;;;;;40.70;22.27;;;7.10;57.70;;;;;;5028467;28;20033;-64
2022/03/19 04:39:24;;;;;;;37.58;22.10;;;7.10;57.80;;;;;;5028751;28;20053;-64
2022/03/19 04:41:50;;;;;;;40.60;22.75;;;7.10;57.70;;;;;;5044871;28;20044;-64
2022/03/19 04:44:16;;;;;;;41.03;22.73;;;7.10;57.70;;;;;;5047259;28;20030;-64
2022/03/19 04:46:42;;;;;;;39.13;22.00;;;7.10;57.30;;;;;;5046521;28;20045;-64
2022/03/19 04:49:09;;;;;;;39.00;22.15;;;7.00;57.40;;;;;;5054600;28;20052;-64
2022/03/19 04:51:37;;;;;;;40.78;23.17;;;7.00;57.40;;;;;;5046354;28;20196;-64
2022/03/19 04:54:04;;;;;;;40.00;22.30;;;7.10;57.40;;;;;;5044486;28;20112;-64
2022/03/19 04:56:31;;;;;;;37.75;21.73;;;7.00;57.20;;;;;;5044113;28;20053;-64
2022/03/19 04:59:00;;;;;;;38.58;21.80;;;7.00;57.10;;;;;;5041626;28;20068;-64
2022/03/19 05:01:27;;;;;;;39.45;22.27;;;7.00;57.20;;;;;;5046022;28;20017;-64
2022/03/19 05:03:52;;;;;;;40.15;22.05;;;7.00;57.20;;;;;;5045302;28;20113;-65
2022/03/19 05:06:19;;;;;;;39.78;22.65;;;7.00;57.20;;;;;;5045491;28;20029;-64
2022/03/19 05:08:45;;;;;;;39.25;22.30;;;7.00;57.20;;;;;;5044196;28;20470;-64
2022/03/19 05:11:14;;;;;;;38.45;22.13;;;7.00;57.10;;;;;;5045339;28;20021;-65
2022/03/19 05:13:41;;;;;;;42.40;21.85;;;7.00;57.10;;;;;;5044040;28;20125;-64
2022/03/19 05:16:07;;;;;;;39.47;21.50;;;7.00;57.10;;;;;;5040946;28;20021;-64
2022/03/19 05:18:33;;;;;;;37.00;22.25;;;7.00;57.20;;;;;;5043558;28;20363;-64
2022/03/19 05:20:58;;;;;;;38.40;23.08;;;6.90;57.10;;;;;;5051571;28;20029;-64
2022/03/19 05:23:24;;;;;;;41.10;23.35;;;6.90;57.10;;;;;;5044731;28;20116;-63
2022/03/19 05:25:52;;;;;;;42.38;23.00;;;6.90;57.20;;;;;;5046070;28;20460;-64
2022/03/19 05:28:18;;;;;;;45.22;23.45;;;6.90;57.30;;;;;;5045620;28;20049;-63
2022/03/19 05:30:44;;;;;;;38.33;22.27;;;6.80;57.10;;;;;;5045602;28;20557;-64
2022/03/19 05:33:11;;;;;;;43.33;21.90;;;6.80;57.30;;;;;;5041244;28;20029;-65
2022/03/19 05:35:37;;;;;;;40.33;23.02;;;6.80;57.30;;;;;;5045966;28;20030;-64
2022/03/19 05:38:05;;;;;;;41.40;22.55;;;6.70;57.40;;;;;;5044600;28;20106;-64
2022/03/19 05:40:31;;;;;;;38.20;21.52;;;6.70;57.40;;;;;;5045306;28;20029;-64
2022/03/19 05:42:56;;;;;;;40.53;23.00;;;6.70;57.50;;;;;;5026967;28;20029;-64
2022/03/19 05:45:22;;;;;;;42.53;22.65;;;6.60;57.50;;;;;;5043533;28;20029;-64
2022/03/19 05:47:48;;;;;;;43.45;23.80;;;6.60;57.60;;;;;;5044070;28;20487;-64
2022/03/19 05:50:15;;;;;;;40.42;22.58;;;6.60;57.60;;;;;;5027248;28;20093;-63
2022/03/19 05:52:41;;;;;;;40.42;23.08;;;6.60;57.70;;;;;;5044789;28;20049;-63
2022/03/19 05:55:08;;;;;;;40.45;22.75;;;6.60;57.70;;;;;;5033058;28;20034;-64
2022/03/19 05:57:34;;;;;;;39.20;23.67;;;6.60;57.80;;;;;;5049011;28;20163;-64
2022/03/19 06:00:00;;;;;;;45.92;23.25;;;6.60;57.80;;;;;;5042608;28;20411;-64
2022/03/19 06:02:26;;;;;;;49.00;22.15;;;6.60;57.80;;;;;;5045527;28;20030;-64
2022/03/19 06:04:52;;;;;;;42.80;23.15;;;6.60;57.90;;;;;;5044359;28;20112;-64
2022/03/19 06:07:18;;;;;;;38.03;21.73;;;6.60;57.90;;;;;;5044606;28;20037;-64
2022/03/19 06:09:44;;;;;;;44.97;23.73;;;6.60;57.90;;;;;;5045905;28;20077;-63
2022/03/19 06:12:10;;;;;;;39.17;22.52;;;6.70;57.90;;;;;;5044081;28;20085;-64
2022/03/19 06:14:36;;;;;;;42.45;21.75;;;6.60;57.90;;;;;;5045489;28;20032;-64
2022/03/19 06:17:01;;;;;;;40.08;23.63;;;6.70;57.90;;;;;;5044383;28;20048;-64
2022/03/19 06:19:27;;;;;;;44.90;23.90;;;6.70;57.80;;;;;;5043554;28;20409;-64
2022/03/19 06:21:53;;;;;;;41.58;22.52;;;6.80;57.80;;;;;;5044001;28;20411;-64
2022/03/19 06:24:20;;;;;;;44.35;22.67;;;6.80;57.80;;;;;;5051468;28;20135;-64
2022/03/19 06:26:46;;;;;;;37.90;21.73;;;6.80;57.80;;;;;;5045267;28;20231;-64
2022/03/19 06:29:12;;;;;;;41.33;22.08;;;6.90;57.80;;;;;;5044719;28;20060;-64
2022/03/19 06:31:37;;;;;;;41.03;23.08;;;6.90;57.80;;;;;;5044456;28;20037;-64
2022/03/19 06:34:03;;;;;;;41.10;21.25;;;6.90;57.60;;;;;;5043853;28;20029;-64
2022/03/19 06:39:13;;;;;;;27.33;15.27;;;7.10;57.60;;;;;;5039997;28;20048;-64
2022/03/19 06:41:39;;;;;;;38.63;21.92;;;7.10;57.60;;;;;;5043625;28;20029;-63
2022/03/19 06:44:05;;;;;;;37.22;21.38;;;7.20;57.40;;;;;;5043535;28;20026;-64
2022/03/19 06:46:30;;;;;;;38.67;21.48;;;7.20;57.30;;;;;;5044602;28;20410;-64
2022/03/19 06:48:56;;;;;;;40.88;21.05;;;7.30;57.10;;;;;;5066190;28;20056;-65
2022/03/19 06:51:22;;;;;;;34.50;20.27;;;7.40;57.10;;;;;;5044322;28;20172;-64
2022/03/19 06:53:48;;;;;;;32.08;19.30;;;7.40;57.10;;;;;;5042357;28;20037;-64
2022/03/19 06:56:16;;;;;;;35.67;20.30;;;7.50;57.10;;;;;;5040887;28;20037;-64
2022/03/19 06:58:42;;;;;;;35.88;19.65;;;7.60;57.00;;;;;;5042856;28;20029;-64
2022/03/19 07:01:15;;;;;;;38.80;20.48;;;7.70;56.80;;;;;;5043835;28;20077;-64
2022/03/19 07:03:42;;;;;;;34.90;20.48;;;7.70;56.60;;;;;;5044460;28;20097;-63
2022/03/19 07:06:08;;;;;;;38.90;21.52;;;7.80;56.50;;;;;;5043775;28;20080;-65
2022/03/19 07:08:34;;;;;;;34.20;20.77;;;7.90;56.00;;;;;;5040913;28;20025;-64
2022/03/19 07:10:59;;;;;;;36.05;20.52;;;7.90;56.10;;;;;;5047123;28;20033;-65
2022/03/19 07:13:25;;;;;;;37.88;20.52;;;8.00;56.00;;;;;;5044284;28;20068;-64
2022/03/19 07:15:51;;;;;;;33.08;19.90;;;8.10;55.80;;;;;;5043566;28;20048;-64
2022/03/19 07:18:17;;;;;;;34.38;20.13;;;8.20;55.70;;;;;;5039207;28;20048;-64
2022/03/19 07:20:42;;;;;;;31.02;17.90;;;8.20;55.20;;;;;;5050774;28;20025;-64
2022/03/19 07:23:08;;;;;;;32.05;18.60;;;8.30;55.40;;;;;;5046577;28;20057;-64
2022/03/19 07:25:37;;;;;;;35.70;18.00;;;8.40;55.30;;;;;;5043298;28;20029;-64
2022/03/19 07:28:06;;;;;;;36.50;18.73;;;8.50;55.30;;;;;;5043876;28;20036;-64
2022/03/19 07:30:32;;;;;;;33.80;20.20;;;8.60;54.90;;;;;;5043214;28;20033;-64
2022/03/19 07:32:58;;;;;;;34.83;18.77;;;8.70;53.60;;;;;;5043408;28;20033;-64
2022/03/19 07:35:24;;;;;;;31.63;18.77;;;8.70;54.20;;;;;;5044672;28;20475;-64
2022/03/19 07:37:50;;;;;;;34.65;18.70;;;8.90;53.80;;;;;;5045312;28;20025;-64
2022/03/19 07:43:08;;;;;;;36.15;18.88;;;9.00;53.30;;;;;;4965881;29;20047;-64
2022/03/19 07:45:34;;;;;;;28.65;17.77;;;9.10;53.30;;;;;;4965128;29;20039;-63
2022/03/19 07:48:00;;;;;;;30.13;17.25;;;9.10;52.60;;;;;;4962175;29;20047;-64
2022/03/19 07:50:26;;;;;;;31.50;19.13;;;9.20;52.80;;;;;;4962991;29;20043;-64
2022/03/19 07:52:52;;;;;;;32.55;17.13;;;9.30;52.90;;;;;;4963853;28;20059;-64
2022/03/19 07:55:18;;;;;;;26.63;16.42;;;9.40;52.10;;;;;;4966988;28;20095;-63
2022/03/19 07:57:44;;;;;;;27.85;15.63;;;9.50;52.70;;;;;;4963948;29;20028;-62
2022/03/19 08:00:12;;;;;;;26.77;16.40;;;9.50;51.90;;;;;;4964891;28;20039;-63
2022/03/19 08:02:39;;;;;;;27.70;16.23;;;9.60;50.90;;;;;;4962630;28;20090;-62
2022/03/19 08:05:06;;;;;;;33.28;16.27;;;9.70;51.10;;;;;;4965754;28;20027;-62
2022/03/19 08:07:32;;;;;;;31.55;17.10;;;9.80;50.90;;;;;;4965982;28;20133;-62
2022/03/19 08:09:57;;;;;;;30.45;15.85;;;9.80;50.70;;;;;;4965313;28;20023;-63
2022/03/19 08:12:24;;;;;;;28.73;16.13;;;9.90;51.20;;;;;;4964480;28;20027;-62
2022/03/19 08:14:51;;;;;;;29.50;16.80;;;10.00;50.60;;;;;;4965228;28;20094;-63
2022/03/19 08:17:17;;;;;;;29.73;16.00;;;10.10;50.20;;;;;;4966201;28;20129;-63
2022/03/19 08:19:43;;;;;;;23.88;14.95;;;10.20;50.80;;;;;;4984297;28;20094;-62
2022/03/19 08:22:09;;;;;;;29.17;16.13;;;10.30;50.90;;;;;;5019176;28;20024;-63
2022/03/19 08:24:36;;;;;;;28.65;15.48;;;10.40;51.10;;;;;;5026475;28;20033;-63
2022/03/19 08:27:02;;;;;;;30.88;16.45;;;10.50;50.00;;;;;;5025208;28;20048;-62
2022/03/19 08:29:28;;;;;;;27.45;16.90;;;10.50;50.20;;;;;;5023827;28;20089;-63
2022/03/19 08:31:54;;;;;;;27.67;16.50;;;10.60;48.80;;;;;;5026971;28;20037;-63
2022/03/19 08:34:20;;;;;;;27.80;15.63;;;10.60;49.70;;;;;;5024861;28;20038;-63
2022/03/19 08:36:46;;;;;;;23.63;15.43;;;10.70;49.60;;;;;;5027153;28;20033;-62
2022/03/19 08:42:10;;;;;;;26.73;16.02;;;10.80;49.60;;;;;;5004334;28;20053;-62
2022/03/19 08:44:35;;;;;;;27.67;15.43;;;10.90;49.90;;;;;;5015523;28;20061;-62
2022/03/19 08:47:01;;;;;;;26.35;16.42;;;10.90;50.10;;;;;;5019669;28;20026;-61
2022/03/19 08:49:27;;;;;;;26.00;15.60;;;11.00;49.50;;;;;;5031575;28;20062;-64
2022/03/19 08:51:52;;;;;;;27.30;16.20;;;11.10;49.10;;;;;;5018784;28;20053;-63
2022/03/19 08:54:19;;;;;;;26.20;16.17;;;11.20;47.90;;;;;;5038690;28;20038;-62
2022/03/19 08:56:48;;;;;;;25.23;15.43;;;11.30;48.20;;;;;;5038910;28;20501;-63
2022/03/19 08:59:16;;;;;;;30.70;16.00;;;11.40;48.00;;;;;;5030772;28;20077;-63
2022/03/19 09:01:43;;;;;;;25.30;15.57;;;11.40;47.10;;;;;;5046530;28;20085;-63
2022/03/19 09:04:11;;;;;;;26.50;16.80;;;11.50;47.60;;;;;;5023720;28;20018;-63
2022/03/19 09:06:37;;;;;;;29.25;15.30;;;11.50;47.00;;;;;;5042674;28;20037;-64
2022/03/19 09:09:03;;;;;;;28.85;17.98;;;11.50;48.30;;;;;;5041737;28;20033;-63
2022/03/19 09:11:33;;;;;;;29.77;17.10;;;11.50;46.20;;;;;;5046476;28;20033;-65
2022/03/19 09:14:00;;;;;;;26.52;16.73;;;11.60;46.80;;;;;;5044257;28;20047;-62
2022/03/19 09:16:25;;;;;;;27.77;16.95;;;11.60;45.90;;;;;;5044244;28;20030;-61
2022/03/19 09:18:52;;;;;;;31.42;18.52;;;11.60;45.70;;;;;;5039077;28;20030;-63
2022/03/19 09:21:19;;;;;;;29.15;17.45;;;11.70;45.70;;;;;;5041864;28;20021;-63
2022/03/19 09:23:45;;;;;;;27.60;17.05;;;11.70;46.50;;;;;;5036842;28;20032;-65
2022/03/19 09:26:14;;;;;;;26.92;16.70;;;11.70;46.60;;;;;;5046177;28;20030;-62
2022/03/19 09:28:41;;;;;;;27.75;17.25;;;11.80;46.10;;;;;;5043882;28;20036;-60
2022/03/19 09:31:07;;;;;;;27.45;16.17;;;11.80;46.80;;;;;;5027313;28;20037;-62
2022/03/19 09:33:33;;;;;;;27.98;17.10;;;11.90;46.00;;;;;;5039717;28;20083;-62
2022/03/19 09:36:01;;;;;;;28.40;16.83;;;12.00;46.30;;;;;;5041017;28;20029;-62
2022/03/19 09:38:27;;;;;;;25.35;16.73;;;12.10;46.40;;;;;;5022618;28;20029;-62
2022/03/19 09:40:54;;;;;;;25.77;16.85;;;12.20;46.50;;;;;;5038332;28;20733;-62
2022/03/19 09:43:23;;;;;;;25.77;16.80;;;12.30;46.50;;;;;;5043833;28;20048;-62
2022/03/19 09:45:49;;;;;;;29.92;17.02;;;12.40;45.80;;;;;;5042424;28;20021;-63
2022/03/19 09:48:14;;;;;;;25.33;15.95;;;12.50;45.80;;;;;;5047939;28;20118;-62
2022/03/19 09:50:41;;;;;;;28.80;16.85;;;12.60;46.30;;;;;;5039995;28;20030;-62
2022/03/19 09:53:09;;;;;;;26.85;17.08;;;12.70;45.50;;;;;;5044526;28;20033;-62
2022/03/19 09:55:40;;;;;;;27.58;16.65;;;12.80;46.20;;;;;;5041279;28;20029;-62
2022/03/19 09:58:06;;;;;;;28.33;17.83;;;12.90;45.80;;;;;;5040719;28;20113;-63
2022/03/19 10:00:32;;;;;;;30.55;17.27;;;13.10;46.20;;;;;;5039194;28;20033;-62
2022/03/19 10:03:02;;;;;;;26.85;18.17;;;13.10;45.40;;;;;;5042795;28;20029;-63
2022/03/19 10:11:05;;;;;;;29.15;18.52;;;13.30;45.00;;;;;;5051520;28;20063;-63
2022/03/19 10:13:30;;;;;;;29.05;18.55;;;13.40;44.20;;;;;;5046041;28;20044;-63
2022/03/19 10:15:56;;;;;;;26.88;17.98;;;13.40;44.70;;;;;;5034021;28;20029;-64
2022/03/19 10:18:30;;;;;;;26.23;17.40;;;13.40;44.70;;;;;;5048157;28;20021;-64
2022/03/19 10:21:01;;;;;;;26.75;17.27;;;13.50;44.10;;;;;;5034058;28;20484;-63
2022/03/19 10:23:35;;;;;;;32.97;18.83;;;13.50;44.90;;;;;;5040872;28;20025;-61
2022/03/19 10:26:02;;;;;;;26.38;17.17;;;13.60;42.50;;;;;;5049639;28;20421;-63
2022/03/19 10:28:33;;;;;;;29.65;18.15;;;13.70;43.70;;;;;;5045801;28;20029;-63
2022/03/19 10:30:59;;;;;;;28.17;17.77;;;13.70;44.20;;;;;;5043391;28;20029;-63
2022/03/19 10:33:33;;;;;;;33.58;19.05;;;13.70;44.80;;;;;;5044000;28;20033;-62
2022/03/19 10:36:06;;;;;;;25.23;17.37;;;13.80;44.70;;;;;;5054351;28;20108;-63
2022/03/19 10:38:44;;;;;;;26.33;17.65;;;13.90;44.90;;;;;;5040523;28;20037;-62
2022/03/19 10:41:11;;;;;;;25.75;16.70;;;14.10;45.00;;;;;;5040336;28;20101;-62
2022/03/19 10:43:37;;;;;;;29.92;19.23;;;14.30;45.30;;;;;;5051384;28;20095;-63
2022/03/19 10:46:04;;;;;;;31.17;19.40;;;14.40;43.50;;;;;;5045140;28;20386;-62
2022/03/19 10:48:30;;;;;;;30.55;19.52;;;14.50;43.70;;;;;;5029019;28;20045;-63
2022/03/19 10:50:57;;;;;;;30.85;18.70;;;14.50;43.40;;;;;;5042956;28;20057;-63
2022/03/19 10:53:25;;;;;;;27.38;17.60;;;14.60;43.10;;;;;;5044314;28;20067;-61
2022/03/19 10:55:51;;;;;;;26.88;18.35;;;14.60;43.10;;;;;;5040110;28;20048;-64
2022/03/19 10:58:17;;;;;;;30.13;17.63;;;14.60;43.20;;;;;;5047975;28;20051;-63
2022/03/19 11:00:48;;;;;;;24.60;16.92;;;14.60;43.10;;;;;;5042671;28;20113;-62
2022/03/19 11:03:35;;;;;;;25.35;16.63;;;14.70;42.20;;;;;;5044118;28;20395;-63
2022/03/19 11:06:05;;;;;;;28.02;16.50;;;14.70;42.30;;;;;;5039623;28;20022;-63
2022/03/19 11:08:41;;;;;;;22.35;14.85;;;14.70;41.90;;;;;;5048015;28;20028;-64
2022/03/19 11:11:16;;;;;;;20.58;13.57;;;14.80;42.00;;;;;;5039257;28;20053;-63
2022/03/19 11:13:46;;;;;;;21.23;13.80;;;14.80;41.60;;;;;;5050947;28;20124;-62
2022/03/19 11:16:12;;;;;;;23.50;14.65;;;14.90;42.10;;;;;;5044616;28;20037;-62
2022/03/19 11:18:40;;;;;;;22.67;14.15;;;14.90;40.20;;;;;;5038488;28;20037;-62
2022/03/19 11:21:08;;;;;;;18.80;12.13;;;14.90;40.40;;;;;;5046706;28;20132;-61
2022/03/19 11:23:56;;;;;;;19.30;12.45;;;15.00;41.60;;;;;;5063940;28;20025;-62
2022/03/19 11:26:26;;;;;;;18.13;11.90;;;15.00;38.60;;;;;;5046926;28;20506;-64
2022/03/19 11:28:52;;;;;;;21.77;12.13;;;15.00;40.20;;;;;;5047941;28;20057;-63
2022/03/19 11:31:25;;;;;;;16.35;11.20;;;15.00;39.70;;;;;;5038037;28;20039;-63
2022/03/19 11:33:51;;;;;;;19.15;11.98;;;15.00;39.80;;;;;;5040754;28;20726;-61
2022/03/19 11:36:16;;;;;;;17.60;11.85;;;15.10;40.10;;;;;;5052011;28;20102;-63
2022/03/19 11:38:53;;;;;;;19.35;12.73;;;15.10;40.40;;;;;;5048098;28;20415;-63
2022/03/19 11:41:29;;;;;;;20.58;13.20;;;15.20;39.00;;;;;;5047121;28;20033;-64
2022/03/19 11:44:23;;;;;;;19.92;13.10;;;15.20;38.70;;;;;;5053987;28;20029;-62
2022/03/19 11:47:04;;;;;;;20.05;12.73;;;15.30;39.20;;;;;;5044369;28;20057;-64
2022/03/19 11:49:49;;;;;;;18.73;13.77;;;15.40;39.50;;;;;;4944681;28;20021;-64
2022/03/19 11:52:47;;;;;;;23.08;14.10;;;15.40;38.00;;;;;;5052348;28;20057;-63
2022/03/19 11:55:16;;;;;;;22.08;14.40;;;15.40;38.50;;;;;;5036235;28;20423;-64
2022/03/19 11:57:58;;;;;;;20.15;13.40;;;15.40;39.40;;;;;;5047428;28;20041;-64
2022/03/19 12:00:29;;;;;;;18.98;12.57;;;15.30;38.20;;;;;;5052909;28;20025;-64
2022/03/19 12:03:15;;;;;;;17.58;12.60;;;15.10;38.10;;;;;;5042775;28;20030;-61
2022/03/19 12:05:47;;;;;;;19.40;13.02;;;14.90;38.80;;;;;;5037210;28;20061;-62
2022/03/19 12:08:21;;;;;;;22.58;13.77;;;14.90;39.10;;;;;;5047258;28;20025;-62
2022/03/19 12:10:57;;;;;;;22.58;14.20;;;14.80;38.10;;;;;;5046034;28;20044;-62
2022/03/19 12:13:29;;;;;;;25.58;13.55;;;14.80;39.30;;;;;;5056091;28;20061;-63
2022/03/19 12:16:08;;;;;;;20.77;13.27;;;14.80;39.70;;;;;;5052044;28;20028;-64
2022/03/19 12:18:40;;;;;;;19.50;12.30;;;14.80;39.00;;;;;;5046250;28;20028;-64
2022/03/19 12:21:08;;;;;;;27.08;12.70;;;14.90;39.10;;;;;;5042252;28;20065;-63
2022/03/19 12:24:11;;;;;;;19.42;13.07;;;14.80;39.40;;;;;;5047539;28;20452;-63
2022/03/19 12:26:41;;;;;;;20.73;12.95;;;14.80;39.00;;;;;;5037412;28;20037;-64
2022/03/19 12:29:11;;;;;;;18.52;12.65;;;14.80;39.20;;;;;;5046963;28;20037;-62
2022/03/19 12:31:41;;;;;;;21.38;14.15;;;14.80;39.10;;;;;;5044957;28;20041;-62
2022/03/19 12:34:26;;;;;;;18.58;12.27;;;14.80;37.90;;;;;;5046774;28;20033;-62
2022/03/19 12:37:03;;;;;;;20.95;13.15;;;14.80;38.20;;;;;;5029336;28;20036;-64
2022/03/19 12:39:29;;;;;;;16.10;11.50;;;14.80;37.50;;;;;;5028536;28;20161;-62
2022/03/19 12:41:55;;;;;;;22.40;13.02;;;14.70;38.10;;;;;;5046804;28;20017;-63
2022/03/19 12:44:24;;;;;;;24.65;11.90;;;14.70;37.60;;;;;;5047702;28;20068;-62
2022/03/19 12:46:58;;;;;;;16.38;10.75;;;14.50;37.00;;;;;;5044293;28;20511;-63
2022/03/19 12:49:24;;;;;;;20.67;12.23;;;14.40;38.50;;;;;;5045798;28;20089;-64
2022/03/19 12:51:50;;;;;;;17.60;11.15;;;14.40;37.90;;;;;;5053360;28;20060;-63